createdAt,value
2018-03-28T00:02:26.696Z,6.70
2018-03-28T00:04:55.915Z,6.97
2018-03-28T00:07:24.143Z,7.13
2018-03-28T00:09:53.352Z,6.30
2018-03-28T00:12:21.583Z,6.87
2018-03-28T00:14:49.816Z,7.10
2018-03-28T00:17:18.087Z,7.87
2018-03-28T00:19:46.636Z,7.53
2018-03-28T00:22:14.885Z,6.27
2018-03-28T00:24:43.134Z,6.47
2018-03-28T00:27:11.385Z,6.50
2018-03-28T00:29:40.389Z,7.10
2018-03-28T00:32:08.851Z,6.00
2018-03-28T00:34:37.654Z,7.20
2018-03-28T00:37:05.896Z,6.40
2018-03-28T00:39:34.277Z,7.97
2018-03-28T00:42:02.665Z,6.97
2018-03-28T00:44:31.076Z,6.37
2018-03-28T00:47:00.291Z,7.83
2018-03-28T00:49:28.609Z,7.03
2018-03-28T00:51:56.811Z,7.00
2018-03-28T00:54:25.802Z,7.23
2018-03-28T00:56:54.777Z,7.40
2018-03-28T00:59:23.009Z,7.17
2018-03-28T01:01:51.252Z,6.83
2018-03-28T01:04:19.703Z,7.33
2018-03-28T01:06:49.638Z,7.30
2018-03-28T01:09:17.869Z,7.70
2018-03-28T01:11:46.139Z,7.80
2018-03-28T01:14:16.081Z,8.23
2018-03-28T01:16:44.328Z,8.00
2018-03-28T01:19:12.569Z,7.20
2018-03-28T01:21:40.816Z,7.70
2018-03-28T01:24:09.121Z,9.00
2018-03-28T01:26:37.397Z,9.20
2018-03-28T01:29:05.668Z,9.40
2018-03-28T01:31:33.978Z,9.60
2018-03-28T01:34:02.243Z,10.40
2018-03-28T01:36:30.541Z,10.70
2018-03-28T01:38:58.901Z,11.67
2018-03-28T01:41:27.138Z,11.37
2018-03-28T01:43:55.383Z,11.87
2018-03-28T01:46:23.617Z,11.40
2018-03-28T01:48:51.887Z,11.60
2018-03-28T01:51:20.152Z,13.10
2018-03-28T01:53:49.170Z,15.97
2018-03-28T01:56:17.465Z,15.20
2018-03-28T01:58:46.405Z,14.87
2018-03-28T02:01:15.441Z,15.03
2018-03-28T02:03:43.757Z,15.10
2018-03-28T02:06:12.019Z,15.57
2018-03-28T02:08:40.273Z,16.07
2018-03-28T02:11:08.547Z,18.43
2018-03-28T02:13:36.804Z,19.53
2018-03-28T02:16:05.041Z,23.40
2018-03-28T02:18:34.071Z,22.30
2018-03-28T02:21:02.349Z,24.97
2018-03-28T02:23:30.659Z,25.37
2018-03-28T02:25:58.904Z,26.57
2018-03-28T02:28:27.601Z,24.70
2018-03-28T02:30:55.870Z,26.33
2018-03-28T02:33:24.141Z,28.97
2018-03-28T02:35:52.405Z,27.53
2018-03-28T02:38:20.673Z,26.30
2018-03-28T02:40:48.933Z,25.17
2018-03-28T02:43:17.210Z,30.73
2018-03-28T02:45:45.465Z,30.03
2018-03-28T02:48:13.727Z,31.20
2018-03-28T02:50:41.955Z,31.93
2018-03-28T02:53:10.977Z,32.50
2018-03-28T02:55:39.249Z,31.37
2018-03-28T02:58:07.517Z,30.87
2018-03-28T03:00:36.502Z,31.50
2018-03-28T03:03:05.535Z,31.53
2018-03-28T03:05:34.771Z,31.90
2018-03-28T03:08:02.987Z,32.57
2018-03-28T03:10:31.252Z,34.53
2018-03-28T03:12:59.490Z,33.83
2018-03-28T03:15:28.077Z,33.97
2018-03-28T03:17:56.281Z,33.90
2018-03-28T03:20:25.047Z,30.90
2018-03-28T03:22:54.788Z,35.60
2018-03-28T03:25:23.230Z,31.67
2018-03-28T03:27:52.995Z,31.13
2018-03-28T03:30:21.266Z,33.27
2018-03-28T03:32:49.762Z,32.13
2018-03-28T03:35:18.094Z,31.00
2018-03-28T03:37:47.130Z,31.23
2018-03-28T03:40:15.402Z,32.10
2018-03-28T03:42:43.681Z,30.93
2018-03-28T03:45:12.496Z,30.80
2018-03-28T03:47:40.762Z,30.10
2018-03-28T03:50:09.008Z,29.07
2018-03-28T03:52:37.304Z,31.37
2018-03-28T03:55:05.541Z,27.80
2018-03-28T03:57:34.746Z,28.70
2018-03-28T04:00:03.020Z,28.17
2018-03-28T04:02:31.246Z,28.60
2018-03-28T04:04:59.514Z,28.13
2018-03-28T04:07:28.539Z,34.83
2018-03-28T04:09:56.785Z,30.47
2018-03-28T04:12:25.760Z,28.23
2018-03-28T04:14:54.001Z,32.70
2018-03-28T04:17:23.958Z,30.87
2018-03-28T04:19:52.301Z,33.10
2018-03-28T04:22:20.593Z,31.57
2018-03-28T04:24:48.877Z,31.33
2018-03-28T04:27:17.314Z,29.47
2018-03-28T04:29:45.788Z,30.90
2018-03-28T04:32:14.065Z,32.87
2018-03-28T04:34:42.418Z,28.77
2018-03-28T04:37:10.678Z,28.50
2018-03-28T04:39:38.958Z,31.00
2018-03-28T04:42:07.377Z,28.03
2018-03-28T04:44:36.501Z,32.90
2018-03-28T04:47:04.952Z,30.10
2018-03-28T04:49:33.228Z,29.40
2018-03-28T04:52:01.465Z,30.43
2018-03-28T04:54:30.203Z,28.37
2018-03-28T04:56:59.233Z,33.17
2018-03-28T04:59:28.281Z,31.17
2018-03-28T05:01:56.549Z,31.37
2018-03-28T05:04:25.793Z,31.23
2018-03-28T05:06:54.065Z,27.87
2018-03-28T05:09:22.330Z,29.17
2018-03-28T05:11:51.354Z,28.27
2018-03-28T05:14:20.457Z,30.07
2018-03-28T05:16:48.736Z,28.03
2018-03-28T05:19:16.977Z,26.90
2018-03-28T05:21:45.292Z,24.20
2018-03-28T05:24:13.572Z,25.27
2018-03-28T05:26:41.863Z,27.03
2018-03-28T05:29:10.109Z,24.77
2018-03-28T05:31:38.389Z,26.27
2018-03-28T05:34:06.636Z,24.97
2018-03-28T05:36:34.928Z,25.70
2018-03-28T05:39:03.173Z,26.00
2018-03-28T05:41:31.449Z,27.07
2018-03-28T05:43:59.969Z,26.53
2018-03-28T05:46:36.235Z,26.20
2018-03-28T05:49:04.508Z,25.60
2018-03-28T05:51:32.745Z,26.53
2018-03-28T05:54:00.991Z,24.17
2018-03-28T05:56:30.124Z,31.50
2018-03-28T05:58:58.384Z,26.27
2018-03-28T06:01:28.142Z,26.40
2018-03-28T06:03:56.694Z,24.20
2018-03-28T06:06:27.051Z,24.77
2018-03-28T06:08:55.393Z,23.60
2018-03-28T06:11:23.790Z,22.03
2018-03-28T06:13:52.067Z,21.90
2018-03-28T06:16:20.414Z,22.60
2018-03-28T06:18:48.639Z,22.97
2018-03-28T06:21:16.913Z,22.37
2018-03-28T06:23:45.164Z,22.60
2018-03-28T06:26:13.436Z,21.47
2018-03-28T06:28:41.686Z,23.83
2018-03-28T06:31:10.246Z,24.87
2018-03-28T06:33:38.693Z,25.00
2018-03-28T06:36:06.994Z,29.17
2018-03-28T06:38:36.966Z,26.90
2018-03-28T06:41:06.022Z,27.07
2018-03-28T06:43:34.422Z,25.43
2018-03-28T06:46:02.677Z,25.80
2018-03-28T06:48:31.385Z,25.20
2018-03-28T06:50:59.866Z,24.73
2018-03-28T06:53:28.093Z,25.40
2018-03-28T06:55:56.367Z,25.40
2018-03-28T06:58:24.810Z,26.13
2018-03-28T07:00:53.037Z,25.67
2018-03-28T07:03:21.434Z,24.90
2018-03-28T07:05:49.729Z,26.30
2018-03-28T07:08:17.966Z,25.23
2018-03-28T07:10:47.131Z,25.90
2018-03-28T07:13:15.411Z,23.73
2018-03-28T07:15:43.725Z,27.43
2018-03-28T07:18:12.017Z,24.70
2018-03-28T07:20:40.338Z,25.43
2018-03-28T07:23:08.523Z,26.00
2018-03-28T07:25:36.764Z,24.80
2018-03-28T07:28:05.042Z,25.97
2018-03-28T07:30:33.517Z,24.40
2018-03-28T07:33:01.795Z,26.50
2018-03-28T07:35:30.087Z,25.83
2018-03-28T07:37:58.320Z,39.50
2018-03-28T07:40:26.636Z,26.93
2018-03-28T07:42:54.896Z,32.60
2018-03-28T07:45:23.142Z,27.47
2018-03-28T07:47:51.406Z,29.20
2018-03-28T07:50:19.657Z,29.97
2018-03-28T07:52:47.927Z,29.47
2018-03-28T07:55:16.164Z,29.60
2018-03-28T07:57:44.666Z,28.40
2018-03-28T08:00:13.388Z,27.33
2018-03-28T08:02:41.652Z,29.00
2018-03-28T08:05:10.667Z,28.37
2018-03-28T08:07:38.925Z,29.07
2018-03-28T08:10:07.228Z,30.67
2018-03-28T08:12:35.493Z,29.53
2018-03-28T08:15:03.750Z,29.33
2018-03-28T08:17:32.799Z,29.73
2018-03-28T08:20:01.074Z,28.13
2018-03-28T08:22:30.100Z,30.13
2018-03-28T08:24:59.159Z,26.37
2018-03-28T08:27:27.415Z,25.43
2018-03-28T08:29:55.679Z,26.80
2018-03-28T08:32:23.922Z,26.43
2018-03-28T08:34:52.929Z,26.67
2018-03-28T08:37:21.200Z,26.50
2018-03-28T08:39:49.456Z,28.07
2018-03-28T08:42:17.687Z,30.03
2018-03-28T08:44:46.022Z,27.50
2018-03-28T08:47:14.490Z,24.50
2018-03-28T08:49:42.693Z,28.30
2018-03-28T08:52:11.078Z,29.47
2018-03-28T08:54:39.360Z,26.63
2018-03-28T08:57:12.098Z,25.87
2018-03-28T08:59:40.375Z,26.70
2018-03-28T09:02:09.420Z,24.03
2018-03-28T09:04:37.974Z,27.87
2018-03-28T09:07:06.437Z,23.33
2018-03-28T09:09:34.661Z,25.50
2018-03-28T09:12:03.778Z,26.40
2018-03-28T09:14:32.041Z,29.50
2018-03-28T09:17:00.322Z,28.40
2018-03-28T09:19:28.643Z,27.17
2018-03-28T09:21:56.860Z,26.97
2018-03-28T09:24:25.391Z,28.93
2018-03-28T09:26:53.621Z,26.60
2018-03-28T09:29:22.353Z,28.07
2018-03-28T09:31:50.652Z,28.37
2018-03-28T09:34:19.656Z,27.93
2018-03-28T09:36:48.742Z,29.40
2018-03-28T09:39:16.980Z,31.30
2018-03-28T09:41:46.128Z,33.87
2018-03-28T09:44:14.377Z,31.83
2018-03-28T09:46:42.655Z,32.40
2018-03-28T09:49:10.905Z,37.03
2018-03-28T09:51:39.149Z,32.47
2018-03-28T09:54:07.430Z,32.97
2018-03-28T09:56:35.677Z,31.37
2018-03-28T09:59:03.944Z,32.47
2018-03-28T10:01:32.965Z,32.50
2018-03-28T10:04:07.586Z,29.07
2018-03-28T10:06:35.885Z,24.67
2018-03-28T10:09:05.056Z,20.50
2018-03-28T10:11:33.336Z,21.47
2018-03-28T10:14:01.837Z,20.50
2018-03-28T10:16:34.209Z,19.13
2018-03-28T10:19:02.461Z,18.30
2018-03-28T10:21:30.719Z,18.60
2018-03-28T10:23:59.752Z,19.77
2018-03-28T10:26:28.108Z,19.17
2018-03-28T10:28:56.365Z,22.07
2018-03-28T10:31:24.644Z,20.77
2018-03-28T10:33:52.913Z,18.90
2018-03-28T10:36:22.114Z,21.33
2018-03-28T10:38:50.391Z,21.03
2018-03-28T10:41:18.617Z,19.90
2018-03-28T10:43:47.621Z,24.47
2018-03-28T10:46:15.861Z,22.60
2018-03-28T10:48:44.109Z,22.63
2018-03-28T10:51:12.397Z,22.57
2018-03-28T10:53:41.510Z,21.30
2018-03-28T10:56:09.773Z,22.90
2018-03-28T10:58:38.175Z,22.70
2018-03-28T11:01:07.183Z,23.40
2018-03-28T11:03:35.434Z,25.00
2018-03-28T11:06:03.706Z,22.53
2018-03-28T11:08:31.990Z,22.30
2018-03-28T11:11:00.266Z,23.43
2018-03-28T11:13:28.541Z,25.03
2018-03-28T11:15:56.806Z,24.67
2018-03-28T11:18:25.080Z,26.53
2018-03-28T11:20:53.371Z,24.03
2018-03-28T11:23:21.638Z,24.00
2018-03-28T11:25:50.715Z,24.47
2018-03-28T11:28:18.972Z,25.70
2018-03-28T11:30:47.352Z,26.37
2018-03-28T11:33:15.707Z,27.27
2018-03-28T11:35:44.074Z,26.40
2018-03-28T11:38:12.332Z,26.50
2018-03-28T11:40:40.633Z,25.83
2018-03-28T11:43:08.864Z,27.70
2018-03-28T11:45:37.902Z,27.67
2018-03-28T11:48:06.146Z,25.33
2018-03-28T11:50:34.938Z,24.60
2018-03-28T11:53:03.297Z,25.57
2018-03-28T11:55:31.523Z,26.97
2018-03-28T11:57:59.826Z,25.50
2018-03-28T12:00:28.035Z,25.93
2018-03-28T12:02:56.300Z,24.50
2018-03-28T12:05:24.590Z,24.00
2018-03-28T12:07:52.882Z,24.70
2018-03-28T12:10:21.262Z,24.47
2018-03-28T12:12:49.538Z,25.10
2018-03-28T12:15:19.523Z,25.23
2018-03-28T12:17:48.735Z,24.00
2018-03-28T12:20:16.978Z,24.07
2018-03-28T12:22:45.269Z,23.90
2018-03-28T12:25:13.556Z,24.60
2018-03-28T12:27:41.818Z,21.60
2018-03-28T12:30:10.118Z,22.30
2018-03-28T12:32:38.460Z,22.33
2018-03-28T12:35:06.773Z,22.47
2018-03-28T12:37:35.820Z,20.30
2018-03-28T12:40:04.087Z,17.00
2018-03-28T12:42:32.589Z,17.30
2018-03-28T12:45:01.714Z,15.90
2018-03-28T12:47:30.002Z,16.40
2018-03-28T12:49:59.258Z,18.43
2018-03-28T12:52:27.479Z,16.10
2018-03-28T12:54:55.905Z,18.50
2018-03-28T12:57:24.175Z,16.53
2018-03-28T12:59:52.485Z,16.30
2018-03-28T13:02:21.575Z,17.07
2018-03-28T13:04:51.359Z,17.53
2018-03-28T13:07:19.650Z,17.80
2018-03-28T13:09:48.140Z,17.67
2018-03-28T13:12:16.468Z,19.00
2018-03-28T13:14:44.795Z,15.23
2018-03-28T13:17:13.086Z,17.83
2018-03-28T13:19:42.211Z,18.53
2018-03-28T13:22:11.409Z,18.57
2018-03-28T13:24:39.691Z,19.07
2018-03-28T13:27:07.937Z,18.70
2018-03-28T13:29:36.209Z,17.17
2018-03-28T13:32:05.271Z,17.57
2018-03-28T13:34:33.614Z,17.70
2018-03-28T13:37:01.926Z,19.63
2018-03-28T13:39:31.037Z,17.90
2018-03-28T13:42:00.133Z,20.47
2018-03-28T13:44:28.980Z,16.57
2018-03-28T13:46:57.229Z,15.20
2018-03-28T13:49:25.505Z,12.97
2018-03-28T13:51:53.797Z,14.30
2018-03-28T13:54:22.052Z,11.77
2018-03-28T13:56:50.327Z,12.23
2018-03-28T13:59:18.564Z,10.90
2018-03-28T14:01:46.877Z,12.17
2018-03-28T14:04:15.897Z,10.40
2018-03-28T14:06:44.199Z,9.63
2018-03-28T14:09:12.449Z,10.00
2018-03-28T14:11:40.701Z,8.00
2018-03-28T14:14:09.735Z,9.73
2018-03-28T14:16:37.970Z,9.13
2018-03-28T14:19:06.432Z,8.30
2018-03-28T14:21:34.714Z,8.97
2018-03-28T14:24:03.803Z,9.43
2018-03-28T14:26:32.028Z,8.70
2018-03-28T14:29:00.382Z,8.10
2018-03-28T14:31:28.835Z,9.00
2018-03-28T14:33:57.115Z,7.97
2018-03-28T14:36:25.350Z,6.73
2018-03-28T14:38:53.670Z,8.33
2018-03-28T14:41:21.915Z,5.47
2018-03-28T14:43:50.348Z,6.90
2018-03-28T14:46:18.606Z,5.07
2018-03-28T14:48:47.622Z,5.60
2018-03-28T14:51:15.893Z,4.10
2018-03-28T14:53:44.422Z,3.23
2018-03-28T14:56:12.725Z,3.43
2018-03-28T14:58:40.965Z,4.00
2018-03-28T15:01:09.199Z,3.60
2018-03-28T15:03:37.482Z,3.80
2018-03-28T15:06:05.779Z,3.00
2018-03-28T15:08:35.135Z,4.43
2018-03-28T15:11:03.413Z,3.27
2018-03-28T15:13:31.788Z,4.33
2018-03-28T15:16:04.120Z,2.67
2018-03-28T15:18:32.451Z,3.70
2018-03-28T15:21:00.689Z,2.60
2018-03-28T15:23:28.941Z,3.00
2018-03-28T15:25:57.194Z,3.43
2018-03-28T15:28:25.581Z,3.10
2018-03-28T15:30:54.678Z,3.90
2018-03-28T15:33:22.924Z,2.57
2018-03-28T15:35:51.206Z,2.63
2018-03-28T15:38:19.706Z,3.50
2018-03-28T15:40:48.108Z,4.47
2018-03-28T15:43:16.403Z,3.00
2018-03-28T15:45:45.241Z,3.37
2018-03-28T15:48:14.365Z,3.20
2018-03-28T15:50:42.985Z,3.07
2018-03-28T15:53:11.281Z,3.60
2018-03-28T15:55:39.561Z,3.70
2018-03-28T15:58:07.841Z,3.77
2018-03-28T16:00:36.265Z,3.50
2018-03-28T16:03:04.686Z,3.53
2018-03-28T16:05:32.898Z,3.93
2018-03-28T16:08:02.047Z,3.90
2018-03-28T16:10:30.301Z,4.17
2018-03-28T16:12:58.592Z,3.77
2018-03-28T16:15:26.934Z,4.03
2018-03-28T16:17:55.280Z,3.93
2018-03-28T16:20:24.300Z,3.70
2018-03-28T16:22:52.557Z,4.10
2018-03-28T16:25:21.670Z,3.20
2018-03-28T16:27:49.999Z,3.70
2018-03-28T16:30:18.220Z,3.90
2018-03-28T16:32:46.449Z,4.07
2018-03-28T16:35:14.807Z,4.90
2018-03-28T16:37:43.073Z,4.53
2018-03-28T16:40:11.339Z,4.10
2018-03-28T16:42:39.817Z,3.67
2018-03-28T16:45:08.086Z,4.00
2018-03-28T16:47:36.314Z,4.33
2018-03-28T16:50:05.361Z,4.30
2018-03-28T16:52:34.449Z,4.47
2018-03-28T16:55:02.897Z,3.70
2018-03-28T16:57:31.172Z,4.40
2018-03-28T16:59:59.428Z,4.20
2018-03-28T17:02:27.936Z,5.23
2018-03-28T17:04:56.950Z,4.30
2018-03-28T17:07:25.938Z,4.27
2018-03-28T17:09:54.193Z,3.83
2018-03-28T17:12:22.671Z,4.30
2018-03-28T17:14:50.874Z,5.60
2018-03-28T17:17:19.878Z,4.10
2018-03-28T17:19:48.218Z,4.90
2018-03-28T17:22:16.436Z,4.23
2018-03-28T17:24:44.788Z,4.27
2018-03-28T17:27:13.068Z,4.50
2018-03-28T17:29:42.062Z,3.80
2018-03-28T17:32:10.335Z,3.93
2018-03-28T17:34:38.621Z,3.83
2018-03-28T17:37:06.926Z,3.53
2018-03-28T17:39:35.150Z,4.53
2018-03-28T17:42:05.114Z,4.90
2018-03-28T17:44:33.364Z,3.63
2018-03-28T17:47:01.898Z,3.80
2018-03-28T17:49:30.249Z,4.20
2018-03-28T17:51:58.488Z,4.10
2018-03-28T17:54:27.544Z,4.57
2018-03-28T17:56:55.832Z,3.93
2018-03-28T17:59:24.168Z,3.73
2018-03-28T18:01:52.434Z,4.10
2018-03-28T18:04:21.619Z,4.03
2018-03-28T18:09:26.807Z,4.70
2018-03-28T18:11:55.026Z,4.03
2018-03-28T18:14:23.461Z,4.40
2018-03-28T18:16:52.434Z,4.60
2018-03-28T18:19:20.731Z,4.90
2018-03-28T18:21:48.978Z,5.60
2018-03-28T18:24:18.114Z,4.50
2018-03-28T18:26:46.408Z,2.10
2018-03-28T18:29:14.683Z,2.17
2018-03-28T18:31:42.926Z,4.20
2018-03-28T18:34:11.197Z,4.20
2018-03-28T18:36:39.460Z,5.03
2018-03-28T18:39:08.145Z,5.13
2018-03-28T18:41:36.391Z,6.17
2018-03-28T18:44:05.477Z,6.10
2018-03-28T18:46:33.752Z,6.80
2018-03-28T18:49:02.042Z,5.63
2018-03-28T18:51:30.268Z,4.87
2018-03-28T18:53:58.612Z,2.97
2018-03-28T18:56:27.305Z,2.10
2018-03-28T18:58:56.500Z,1.10
2018-03-28T19:01:25.494Z,1.23
2018-03-28T19:03:53.787Z,1.00
2018-03-28T19:06:22.024Z,1.07
2018-03-28T19:08:50.298Z,1.80
2018-03-28T19:11:18.542Z,1.80
2018-03-28T19:13:46.779Z,3.30
2018-03-28T19:16:15.105Z,3.77
2018-03-28T19:18:44.285Z,4.03
2018-03-28T19:21:12.559Z,5.23
2018-03-28T19:23:40.820Z,5.90
2018-03-28T19:26:09.820Z,8.70
2018-03-28T19:28:38.082Z,6.97
2018-03-28T19:31:07.917Z,6.33
2018-03-28T19:33:36.151Z,4.97
2018-03-28T19:36:04.408Z,3.93
2018-03-28T19:38:34.325Z,3.27
2018-03-28T19:41:02.559Z,2.50
2018-03-28T19:43:30.858Z,3.30
2018-03-28T19:45:59.057Z,2.70
2018-03-28T19:48:27.300Z,2.67
2018-03-28T19:50:55.585Z,2.93
2018-03-28T19:53:23.818Z,3.13
2018-03-28T19:55:52.065Z,3.50
2018-03-28T19:58:20.312Z,4.90
2018-03-28T20:00:48.527Z,5.47
2018-03-28T20:03:17.576Z,5.50
2018-03-28T20:05:45.890Z,5.00
2018-03-28T20:08:15.152Z,5.57
2018-03-28T20:10:43.390Z,7.03
2018-03-28T20:13:11.655Z,7.00
2018-03-28T20:15:40.733Z,8.77
2018-03-28T20:18:13.349Z,7.67
2018-03-28T20:20:41.604Z,9.47
2018-03-28T20:23:10.595Z,9.33
2018-03-28T20:25:39.013Z,9.40
2018-03-28T20:28:07.945Z,10.70
2018-03-28T20:30:36.169Z,10.87
2018-03-28T20:33:04.506Z,11.23
2018-03-28T20:35:32.737Z,10.67
2018-03-28T20:38:01.005Z,11.63
2018-03-28T20:40:29.235Z,11.50
2018-03-28T20:42:58.251Z,10.90
2018-03-28T20:45:26.540Z,11.77
2018-03-28T20:47:54.770Z,11.40
2018-03-28T20:50:23.050Z,11.33
2018-03-28T20:52:51.347Z,11.33
2018-03-28T20:55:19.616Z,10.43
2018-03-28T20:57:47.852Z,11.07
2018-03-28T21:00:16.869Z,10.20
2018-03-28T21:02:45.922Z,11.50
2018-03-28T21:05:15.043Z,10.10
2018-03-28T21:07:44.100Z,14.30
2018-03-28T21:10:12.531Z,12.83
2018-03-28T21:12:40.846Z,9.83
2018-03-28T21:15:10.031Z,9.57
2018-03-28T21:17:38.318Z,8.50
2018-03-28T21:20:07.377Z,13.97
2018-03-28T21:22:35.721Z,15.03
2018-03-28T21:25:03.965Z,16.80
2018-03-28T21:27:32.528Z,15.90
2018-03-28T21:30:00.794Z,16.83
2018-03-28T21:32:29.115Z,14.77
2018-03-28T21:34:57.394Z,15.97
2018-03-28T21:37:26.505Z,15.00
2018-03-28T21:39:54.931Z,15.37
2018-03-28T21:42:23.162Z,16.13
2018-03-28T21:44:51.448Z,15.97
2018-03-28T21:47:20.009Z,16.13
2018-03-28T21:49:48.256Z,17.20
2018-03-28T21:52:16.567Z,17.13
2018-03-28T21:54:45.836Z,17.70
2018-03-28T21:57:14.118Z,22.20
2018-03-28T21:59:43.699Z,20.50
2018-03-28T22:02:12.103Z,16.90
2018-03-28T22:04:40.377Z,17.27
2018-03-28T22:07:09.306Z,17.00
2018-03-28T22:09:37.555Z,16.43
2018-03-28T22:12:07.810Z,17.50
2018-03-28T22:14:37.570Z,18.10
2018-03-28T22:17:05.953Z,19.77
2018-03-28T22:19:34.982Z,20.17
2018-03-28T22:22:03.246Z,21.57
2018-03-28T22:24:31.575Z,20.27
2018-03-28T22:26:59.831Z,20.90
2018-03-28T22:29:28.336Z,21.00
2018-03-28T22:31:56.545Z,22.13
2018-03-28T22:34:25.246Z,19.47
2018-03-28T22:36:54.257Z,18.47
2018-03-28T22:39:22.533Z,20.23
2018-03-28T22:41:50.775Z,18.10
2018-03-28T22:44:19.038Z,17.83
2018-03-28T22:46:47.274Z,18.10
2018-03-28T22:49:15.744Z,15.57
2018-03-28T22:51:43.998Z,14.00
2018-03-28T22:54:12.382Z,12.27
2018-03-28T22:56:40.605Z,13.03
2018-03-28T22:59:09.308Z,12.23
2018-03-28T23:01:37.564Z,11.67
2018-03-28T23:04:07.316Z,11.20
2018-03-28T23:06:35.755Z,11.63
2018-03-28T23:09:04.094Z,8.90
2018-03-28T23:11:33.034Z,8.33
2018-03-28T23:14:02.049Z,8.70
2018-03-28T23:16:30.927Z,7.67
2018-03-28T23:18:59.133Z,7.93
2018-03-28T23:21:27.414Z,8.10
2018-03-28T23:23:55.673Z,8.90
2018-03-28T23:26:24.833Z,8.40
2018-03-28T23:28:53.107Z,10.27
2018-03-28T23:31:21.330Z,7.60
2018-03-28T23:33:49.551Z,8.00
2018-03-28T23:36:17.854Z,8.37
2018-03-28T23:38:46.078Z,8.27
2018-03-28T23:41:14.390Z,8.03
2018-03-28T23:43:42.772Z,8.23
2018-03-28T23:46:10.988Z,8.73
2018-03-28T23:48:39.535Z,8.70
2018-03-28T23:51:07.807Z,8.47
2018-03-28T23:53:36.758Z,9.47
2018-03-28T23:56:05.009Z,9.80
2018-03-28T23:58:33.451Z,9.53
